Aérodrome :
LOGIN :

S'inscrire | Disclaimer

   EN    FR    IT 

 










Légende :    VFR   VFR Marginal   IFR   IFR Intensif   IFR Très Intensif
Visi : 
Plafond : 
>= 8 km
>= 3000ft
5 à 8 km
1000 à 3000 ft
1500m à 5 km
500 à 1000 ft
800 à 1500m
200 à 500 ft
< 800m
< 200 ft
Symboles :   Orages  Brouillard  Fortes neiges  Fortes précipitations  Vent > 20 kt
SIGMETs :   Divers  Orages  Givrage  Turbulence  Onde Orograph.  Cendres Volcan.






- Altitude de l'aérodrome : 325 ft
- Code IATA : BES


LFRB - Brest

DERNIER METAR :
  • 281230Z AUTO 22021KT 9999 OVC006 12/11 Q1008 BECMG 22016G34KT 3000 BR OVC003

METARs EXPIRÉS :
  • 281200Z AUTO 22021KT 7000 OVC005 12/11 Q1008 BECMG 22016G34KT 3000 BR
  • 281130Z AUTO 22021KT 5000 BR OVC003 11/11 Q1009 BECMG 22016G34KT
  • 281100Z AUTO 22020KT 3500 -DZ BR OVC004 11/11 Q1009 BECMG 24015G30KT 6000 NSW BKN016
  • 281030Z AUTO 22022KT 2500 BR OVC002 11/11 Q1009 BECMG 24015G30KT 6000 NSW BKN016
  • 281000Z AUTO 22019KT 2900 BR OVC003 11/11 Q1009 BECMG 24015G30KT 6000 NSW BKN016

TAF TAF LFRB
Valide du 28 à 12h jusqu'au 29 à 18h UTC


281100Z 2812/2918 22016G34KT 3000 BR OVC003
TEMPO 2815/2818 BKN012
TEMPO 2901/2905 21025G53KT 2000 +RA OVC005 FEW012CB
BECMG 2907/2909 27015G25KT 9999 NSW SCT020 SCT040
BECMG 2912/2915 24020G40KT
TEMPO 2912/2918 3000 SHRA FEW012CB BKN017TCU
ATIS : +33 2 98 32 02 71



MET'MAP, la Météo Aéronautique d'un coup d'oeil ! - Copyright ORBIFLY Décembre 2007 - Disclaimer

ORBIFLY MET'MAP TEAM :

Programmation & Développement : Alexandra Zaïnal
Sur une idée originale de : Baudouin d'Aumeries
Assistance à la programmation : Marc-Olivier Méhu
Soutien technique & logistique : Manuel Goepfert

Contact : metmap@orbifly.com




SOURCES & CREDITS :

   NOAA